Time;durP1;ratioP1;P1;durP2;ratioP2;P2;SDS_P1;SDS_P2;PMS_P1;PMS_P2;Temp;Humidity;BMP_temperature;BMP_pressure;BME280_temperature;BME280_humidity;BME280_pressure;Samples;Min_cycle;Max_cycle;Signal;HPM_P1;HPM_P2
2022/07/21 00:00:28;;;;;;;1.58;1.02;;;;;;;37.58;27.53;100904.56;4876855;29;20064;-73
2022/07/21 00:02:57;;;;;;;3.53;1.50;;;;;;;37.51;25.39;100900.63;4865552;29;20142;-72
2022/07/21 00:05:27;;;;;;;1.55;0.95;;;;;;;37.48;25.86;100903.59;4870245;29;20117;-72
2022/07/21 00:07:56;;;;;;;4.07;1.30;;;;;;;37.45;24.96;100901.97;4865936;29;20062;-73
2022/07/21 00:10:26;;;;;;;2.78;1.30;;;;;;;37.43;24.65;100898.56;4878103;29;20602;-73
2022/07/21 00:12:56;;;;;;;3.20;1.00;;;;;;;37.43;25.48;100901.28;4872136;29;20060;-74
2022/07/21 00:15:28;;;;;;;3.35;1.25;;;;;;;37.43;25.30;100903.97;4876540;29;20075;-74
2022/07/21 00:17:56;;;;;;;2.08;1.30;;;;;;;37.40;25.93;100900.66;4875566;29;20056;-73
2022/07/21 00:20:27;;;;;;;3.40;1.40;;;;;;;37.33;25.34;100892.19;4874085;29;20056;-73
2022/07/21 00:22:56;;;;;;;3.92;1.20;;;;;;;37.25;25.31;100890.13;4877325;29;20057;-73
2022/07/21 00:25:25;;;;;;;3.75;1.25;;;;;;;37.16;25.59;100896.28;4877382;29;20057;-73
2022/07/21 00:27:54;;;;;;;2.88;1.15;;;;;;;37.10;25.72;100885.97;4876277;29;20534;-73
2022/07/21 00:30:22;;;;;;;3.42;1.30;;;;;;;37.03;25.56;100898.19;4874210;29;20061;-73
2022/07/21 00:32:53;;;;;;;2.97;1.35;;;;;;;36.96;24.59;100883.50;4875992;29;20056;-72
2022/07/21 00:35:21;;;;;;;3.03;1.23;;;;;;;36.88;25.61;100892.19;4877056;29;20407;-73
2022/07/21 00:37:50;;;;;;;5.45;1.25;;;;;;;36.72;24.47;100884.47;4873617;29;20539;-74
2022/07/21 00:40:18;;;;;;;2.40;1.20;;;;;;;36.57;25.07;100888.31;4883651;29;20056;-73
2022/07/21 00:42:47;;;;;;;2.35;1.25;;;;;;;36.47;25.08;100878.28;4871800;29;20110;-73
2022/07/21 00:45:16;;;;;;;1.85;1.25;;;;;;;36.45;26.27;100880.22;4870058;29;20061;-74
2022/07/21 00:47:45;;;;;;;2.72;1.40;;;;;;;36.34;26.40;100873.94;4878230;29;20053;-73
2022/07/21 00:50:17;;;;;;;4.40;1.30;;;;;;;36.32;26.13;100874.06;4877558;29;20128;-74
2022/07/21 00:52:47;;;;;;;2.30;1.40;;;;;;;36.27;25.65;100876.25;4875706;29;20683;-73
2022/07/21 00:55:17;;;;;;;3.00;1.30;;;;;;;36.19;25.68;100874.13;4873850;29;20069;-72
2022/07/21 00:57:47;;;;;;;2.42;1.27;;;;;;;36.16;27.18;100868.13;4874772;29;20057;-73
2022/07/21 01:00:18;;;;;;;1.55;1.30;;;;;;;36.16;26.44;100865.44;4872364;29;20093;-73
2022/07/21 01:02:47;;;;;;;2.88;1.60;;;;;;;36.12;27.37;100855.88;4866561;29;20084;-73
2022/07/21 01:05:18;;;;;;;3.05;1.33;;;;;;;36.10;25.63;100857.78;4875037;29;20057;-73
2022/07/21 01:07:49;;;;;;;3.92;1.20;;;;;;;36.09;26.55;100859.63;4875946;29;20511;-72
2022/07/21 01:10:22;;;;;;;4.30;1.30;;;;;;;36.08;25.52;100856.09;4874896;29;20053;-72
2022/07/21 01:12:52;;;;;;;3.88;1.27;;;;;;;36.06;25.05;100860.72;4868983;29;20044;-73
2022/07/21 01:15:22;;;;;;;5.13;1.40;;;;;;;36.00;27.34;100855.81;4868835;29;20049;-73
2022/07/21 01:17:50;;;;;;;2.78;1.40;;;;;;;35.98;24.84;100854.22;4873491;29;20052;-73
2022/07/21 01:20:23;;;;;;;7.07;1.20;;;;;;;35.97;26.34;100852.50;4871314;29;20120;-73
2022/07/21 01:22:56;;;;;;;1.90;1.30;;;;;;;35.93;27.30;100857.25;4875945;29;20055;-75
2022/07/21 01:25:25;;;;;;;2.85;1.38;;;;;;;35.92;25.92;100851.97;4875563;29;20097;-74
2022/07/21 01:27:53;;;;;;;3.75;1.20;;;;;;;35.84;26.04;100845.34;4870291;29;20066;-73
2022/07/21 01:30:22;;;;;;;2.97;1.30;;;;;;;35.76;26.52;100838.81;4872159;29;20139;-73
2022/07/21 01:32:50;;;;;;;4.22;1.35;;;;;;;35.73;26.72;100842.59;4875779;29;20049;-73
2022/07/21 01:35:19;;;;;;;4.03;1.48;;;;;;;35.71;26.12;100841.84;4878155;29;20049;-74
2022/07/21 01:37:49;;;;;;;4.22;1.55;;;;;;;35.72;25.63;100848.13;4874899;29;20106;-72
2022/07/21 01:43:05;;;;;;;2.33;1.58;;;;;;;35.68;25.63;100843.94;4870354;29;20522;-72
2022/07/21 01:45:34;;;;;;;3.05;1.52;;;;;;;35.60;27.45;100845.34;4867205;29;20049;-74
2022/07/21 01:48:03;;;;;;;2.97;1.30;;;;;;;35.53;26.27;100849.47;4874737;29;20500;-74
2022/07/21 01:50:31;;;;;;;2.30;1.40;;;;;;;35.41;26.31;100839.56;4867635;29;20532;-74
2022/07/21 01:53:01;;;;;;;4.00;1.20;;;;;;;35.31;26.63;100838.56;4881068;29;20045;-74
2022/07/21 01:55:32;;;;;;;5.03;1.58;;;;;;;35.25;25.75;100837.16;4868705;29;20117;-74
2022/07/21 01:58:03;;;;;;;3.30;1.63;;;;;;;35.18;28.56;100839.44;4871784;29;20064;-74
2022/07/21 02:00:31;;;;;;;2.05;1.45;;;;;;;35.06;27.63;100839.44;4863467;29;20690;-73
2022/07/21 02:03:00;;;;;;;3.33;1.30;;;;;;;34.79;27.63;100837.75;4861467;29;20049;-73
2022/07/21 02:05:29;;;;;;;3.33;1.50;;;;;;;34.55;27.11;100843.88;4878574;29;20090;-72
2022/07/21 02:07:58;;;;;;;1.83;1.20;;;;;;;34.54;27.64;100842.13;4877853;29;20431;-73
2022/07/21 02:10:27;;;;;;;5.80;1.40;;;;;;;34.44;27.86;100848.28;4859973;29;20105;-73
2022/07/21 02:12:57;;;;;;;1.77;1.20;;;;;;;34.40;29.08;100831.50;4876843;29;20059;-71
2022/07/21 02:15:25;;;;;;;1.80;1.15;;;;;;;34.42;29.26;100835.78;4871004;29;20170;-73
2022/07/21 02:17:54;;;;;;;2.28;1.52;;;;;;;34.40;29.55;100837.72;4861931;29;20549;-70
2022/07/21 02:20:23;;;;;;;1.27;1.10;;;;;;;34.38;30.28;100836.13;4865582;29;20226;-72
2022/07/21 02:22:52;;;;;;;4.72;1.30;;;;;;;34.31;30.17;100835.69;4871971;29;20061;-74
2022/07/21 02:25:21;;;;;;;2.53;1.15;;;;;;;34.22;29.94;100836.31;4872066;29;20162;-73
2022/07/21 02:27:50;;;;;;;4.25;1.30;;;;;;;34.16;30.17;100831.38;4870166;29;20053;-73
2022/07/21 02:30:20;;;;;;;1.77;1.10;;;;;;;34.09;29.80;100840.78;4874824;29;20469;-73
2022/07/21 02:32:49;;;;;;;3.13;1.20;;;;;;;33.98;29.45;100837.00;4878211;29;20045;-74
2022/07/21 02:35:18;;;;;;;2.17;1.20;;;;;;;33.92;29.83;100842.78;4874061;29;20494;-71
2022/07/21 02:37:46;;;;;;;2.53;1.73;;;;;;;33.88;29.73;100852.03;4873595;29;20048;-73
2022/07/21 02:40:15;;;;;;;4.30;1.75;;;;;;;33.83;29.79;100851.44;4878381;29;20049;-72
2022/07/21 02:42:44;;;;;;;1.52;1.23;;;;;;;33.73;30.63;100851.19;4870332;29;20085;-72
2022/07/21 02:45:13;;;;;;;2.13;0.93;;;;;;;33.67;30.51;100856.09;4868788;29;20503;-72
2022/07/21 02:47:54;;;;;;;1.40;1.30;;;;;;;33.58;30.77;100865.63;4871979;29;20071;-72
2022/07/21 02:50:24;;;;;;;2.90;1.33;;;;;;;33.50;30.44;100858.06;4876346;29;20527;-71
2022/07/21 02:52:57;;;;;;;5.07;1.20;;;;;;;33.44;30.35;100868.31;4871279;29;20056;-72
2022/07/21 02:55:25;;;;;;;2.08;1.10;;;;;;;33.35;30.66;100869.75;4873466;29;20061;-72
2022/07/21 02:58:08;;;;;;;1.38;1.23;;;;;;;33.28;31.18;100863.94;4868368;29;20100;-73
2022/07/21 03:00:38;;;;;;;1.70;1.25;;;;;;;33.17;31.11;100869.16;4872344;29;20044;-74
2022/07/21 03:03:08;;;;;;;6.35;1.33;;;;;;;33.05;31.08;100876.13;4868169;29;20049;-74
2022/07/21 03:05:38;;;;;;;4.17;1.20;;;;;;;32.94;31.71;100867.84;4869034;29;20080;-74
2022/07/21 03:08:08;;;;;;;3.80;1.20;;;;;;;32.74;31.97;100869.97;4875352;29;20104;-74
2022/07/21 03:10:36;;;;;;;2.40;1.20;;;;;;;32.56;32.26;100871.09;4875901;29;20108;-75
2022/07/21 03:13:05;;;;;;;2.08;1.17;;;;;;;32.49;32.43;100869.72;4868807;29;20063;-73
2022/07/21 03:15:34;;;;;;;1.80;1.20;;;;;;;32.44;34.33;100869.16;4864998;29;20045;-73
2022/07/21 03:18:03;;;;;;;2.03;1.35;;;;;;;32.33;34.73;100870.63;4871029;29;20061;-73
2022/07/21 03:20:36;;;;;;;4.95;1.13;;;;;;;32.23;34.51;100874.84;4868113;29;20059;-73
2022/07/21 03:23:05;;;;;;;1.50;1.20;;;;;;;32.14;34.57;100872.72;4871808;29;20057;-72
2022/07/21 03:25:34;;;;;;;3.08;1.27;;;;;;;32.05;35.02;100878.59;4871281;29;20679;-72
2022/07/21 03:28:03;;;;;;;1.52;1.20;;;;;;;31.94;34.79;100873.84;4867471;29;20061;-72
2022/07/21 03:30:31;;;;;;;3.80;1.58;;;;;;;31.83;35.63;100876.25;4854178;29;20061;-72
2022/07/21 03:33:00;;;;;;;2.25;1.30;;;;;;;31.71;35.43;100883.19;4852961;29;20106;-71
2022/07/21 03:35:28;;;;;;;3.97;1.40;;;;;;;31.59;35.43;100882.06;4855686;29;20074;-73
2022/07/21 03:38:00;;;;;;;3.03;1.30;;;;;;;31.48;35.76;100882.66;4851917;29;20053;-72
2022/07/21 03:40:31;;;;;;;2.65;1.40;;;;;;;31.36;35.75;100877.09;4853927;29;20096;-72
2022/07/21 03:43:01;;;;;;;3.63;1.50;;;;;;;31.25;35.83;100880.38;4853804;29;20102;-71
2022/07/21 03:45:31;;;;;;;6.35;1.55;;;;;;;31.13;36.06;100876.59;4851991;29;20064;-72
2022/07/21 03:48:00;;;;;;;3.33;1.20;;;;;;;31.01;36.82;100883.44;4851968;29;20070;-72
2022/07/21 03:50:30;;;;;;;4.20;1.60;;;;;;;30.90;36.89;100880.47;4845840;29;20576;-72
2022/07/21 03:53:00;;;;;;;2.75;1.45;;;;;;;30.79;37.17;100880.19;4856349;29;20148;-72
2022/07/21 03:55:29;;;;;;;2.65;1.40;;;;;;;30.67;37.74;100885.22;4849258;29;20622;-72
2022/07/21 03:57:59;;;;;;;5.10;1.55;;;;;;;30.56;38.14;100887.59;4851992;29;20049;-71
2022/07/21 04:00:31;;;;;;;4.88;1.30;;;;;;;30.45;38.00;100888.13;4852780;29;20119;-71
2022/07/21 04:03:00;;;;;;;1.73;1.45;;;;;;;30.34;38.87;100898.50;4856379;29;20053;-73
2022/07/21 04:05:30;;;;;;;3.97;1.30;;;;;;;30.22;39.36;100899.94;4860081;29;20088;-73
2022/07/21 04:08:01;;;;;;;1.30;1.10;;;;;;;30.09;38.66;100897.97;4864073;29;20495;-73
2022/07/21 04:10:32;;;;;;;1.67;1.10;;;;;;;29.95;39.25;100901.34;4854143;29;20055;-74
2022/07/21 04:13:02;;;;;;;5.07;2.00;;;;;;;29.81;40.13;100908.19;4856252;29;20299;-75
2022/07/21 04:15:31;;;;;;;3.97;1.42;;;;;;;29.71;38.99;100920.25;4855067;29;20054;-75
2022/07/21 04:18:00;;;;;;;2.13;1.20;;;;;;;29.59;39.90;100915.47;4842051;29;20046;-72
2022/07/21 04:20:29;;;;;;;2.67;0.93;;;;;;;29.49;38.56;100917.69;4855389;29;20495;-73
2022/07/21 04:22:59;;;;;;;6.80;1.42;;;;;;;29.35;41.18;100923.69;4854337;29;20606;-72
2022/07/21 04:25:29;;;;;;;3.03;1.50;;;;;;;29.20;41.55;100919.03;4852715;29;20061;-74
2022/07/21 04:28:00;;;;;;;3.33;1.20;;;;;;;29.09;41.51;100916.00;4859810;29;20057;-73
2022/07/21 04:30:28;;;;;;;1.63;0.87;;;;;;;29.00;40.29;100918.13;4859469;29;20660;-73
2022/07/21 04:32:57;;;;;;;3.35;0.90;;;;;;;28.92;40.25;100917.59;4845278;29;20141;-73
2022/07/21 04:35:26;;;;;;;5.10;0.88;;;;;;;28.88;39.92;100923.13;4851119;29;20483;-73
2022/07/21 04:37:54;;;;;;;1.25;0.70;;;;;;;28.80;39.87;100926.13;4847743;29;20549;-72
2022/07/21 04:40:25;;;;;;;3.85;1.30;;;;;;;28.72;39.44;100929.13;4850691;29;20487;-74
2022/07/21 04:42:53;;;;;;;2.95;0.80;;;;;;;28.63;39.71;100929.50;4846533;29;20060;-73
2022/07/21 04:45:22;;;;;;;1.05;0.70;;;;;;;28.54;39.09;100936.13;4854229;29;20068;-73
2022/07/21 04:47:52;;;;;;;1.27;0.75;;;;;;;28.47;39.50;100939.94;4853420;29;20651;-73
2022/07/21 04:50:23;;;;;;;1.00;0.90;;;;;;;28.42;42.60;100942.78;4855281;29;20669;-74
2022/07/21 04:52:52;;;;;;;3.17;0.88;;;;;;;28.36;43.22;100945.72;4855754;29;20046;-73
2022/07/21 04:55:21;;;;;;;1.70;1.00;;;;;;;28.26;40.95;100940.81;4849677;29;20133;-73
2022/07/21 04:57:53;;;;;;;1.33;0.90;;;;;;;28.16;42.06;100946.53;4854382;29;20149;-75
2022/07/21 05:00:21;;;;;;;;;;;;;;;28.06;40.64;100950.50;4850786;29;20049;-73
2022/07/21 05:02:51;;;;;;;3.47;1.15;;;;;;;27.97;42.47;100956.19;4855582;29;19931;-74
2022/07/21 05:05:20;;;;;;;1.75;0.98;;;;;;;27.85;43.76;100951.34;4856755;29;20064;-74
2022/07/21 05:07:49;;;;;;;1.50;0.95;;;;;;;27.74;43.27;100949.06;4842646;29;20842;-73
2022/07/21 05:10:21;;;;;;;0.98;0.77;;;;;;;27.67;42.90;100956.44;4848762;29;20754;-72
2022/07/21 05:12:51;;;;;;;3.53;1.10;;;;;;;27.64;44.57;100955.66;4847456;29;20420;-71
2022/07/21 05:15:20;;;;;;;1.20;0.70;;;;;;;27.58;44.14;100954.13;4852278;29;20076;-73
2022/07/21 05:17:48;;;;;;;3.58;1.00;;;;;;;27.51;43.64;100952.59;4850599;29;20403;-72
2022/07/21 05:20:17;;;;;;;1.92;0.88;;;;;;;27.41;43.73;100956.53;4852561;29;20432;-73
2022/07/21 05:22:46;;;;;;;3.55;0.93;;;;;;;27.34;43.33;100959.41;4857515;29;20129;-71
2022/07/21 05:25:14;;;;;;;1.75;0.90;;;;;;;27.28;42.88;100962.31;4850422;29;20599;-72
2022/07/21 05:27:58;;;;;;;2.88;0.75;;;;;;;27.23;43.62;100966.91;4850180;29;20097;-74
2022/07/21 05:30:26;;;;;;;3.00;0.60;;;;;;;27.17;43.58;100960.03;4853883;29;20183;-72
2022/07/21 05:32:55;;;;;;;1.70;0.80;;;;;;;27.09;44.83;100963.88;4858660;29;20511;-72
2022/07/21 05:35:23;;;;;;;1.60;1.08;;;;;;;26.89;46.93;100962.81;4852238;29;20053;-72
2022/07/21 05:37:52;;;;;;;6.13;1.45;;;;;;;26.71;46.94;100971.41;4846306;29;20046;-72
2022/07/21 05:40:20;;;;;;;1.58;1.38;;;;;;;26.62;47.58;100971.69;4857545;29;20080;-74
2022/07/21 05:42:49;;;;;;;1.90;1.10;;;;;;;26.52;47.68;100969.31;4855958;29;20057;-73
2022/07/21 05:45:19;;;;;;;2.83;1.50;;;;;;;26.46;47.97;100974.00;4856964;29;20053;-75
2022/07/21 05:47:48;;;;;;;3.47;1.60;;;;;;;26.41;48.60;100976.78;4861881;29;20057;-73
2022/07/21 05:50:16;;;;;;;4.78;1.50;;;;;;;26.39;48.75;100981.28;4855220;29;20121;-72
2022/07/21 05:52:45;;;;;;;4.10;1.17;;;;;;;26.36;48.80;100977.84;4856335;29;20041;-73
2022/07/21 05:55:13;;;;;;;4.53;1.20;;;;;;;26.31;48.52;100973.53;4864564;29;20453;-72
2022/07/21 05:57:42;;;;;;;4.28;1.40;;;;;;;26.29;49.44;100971.88;4852373;29;20049;-72
2022/07/21 06:00:12;;;;;;;6.43;1.67;;;;;;;26.22;49.66;100978.28;4848831;29;20045;-73
2022/07/21 06:02:42;;;;;;;2.35;1.52;;;;;;;26.05;49.96;100979.69;4853332;29;20042;-73
2022/07/21 06:05:11;;;;;;;1.77;1.30;;;;;;;25.88;51.43;100987.28;4865514;29;20045;-72
2022/07/21 06:07:40;;;;;;;2.35;1.30;;;;;;;25.77;50.67;100986.72;4858526;29;20061;-74
2022/07/21 06:10:09;;;;;;;4.18;1.35;;;;;;;25.64;51.07;100979.13;4858055;29;20089;-72
2022/07/21 06:12:38;;;;;;;2.05;1.23;;;;;;;25.48;51.78;100980.50;4853254;29;20500;-72
2022/07/21 06:15:07;;;;;;;2.53;1.23;;;;;;;25.35;52.22;100985.28;4864725;29;20987;-72
2022/07/21 06:17:42;;;;;;;6.28;1.42;;;;;;;25.21;53.02;100987.44;4861098;29;20061;-72
2022/07/21 06:20:12;;;;;;;5.97;1.35;;;;;;;25.01;53.97;100985.28;4855269;29;20049;-74
2022/07/21 06:22:40;;;;;;;3.30;1.40;;;;;;;24.77;53.73;100981.53;4854813;29;20053;-72
2022/07/21 06:25:09;;;;;;;3.33;1.27;;;;;;;24.64;53.69;100989.75;4859188;29;20199;-72
2022/07/21 06:27:38;;;;;;;4.50;1.30;;;;;;;24.50;54.67;100993.66;4857701;29;20052;-72
2022/07/21 06:30:08;;;;;;;1.55;1.13;;;;;;;24.37;56.17;101006.28;4869495;28;20067;-72
2022/07/21 06:32:37;;;;;;;2.67;1.40;;;;;;;24.25;54.54;101003.00;4870311;29;20056;-72
2022/07/21 06:35:08;;;;;;;2.55;1.30;;;;;;;24.14;54.00;100997.09;4871091;29;20647;-72
2022/07/21 06:37:36;;;;;;;7.28;1.13;;;;;;;24.08;54.40;100991.13;4878285;29;20117;-71
2022/07/21 06:40:06;;;;;;;5.25;1.58;;;;;;;24.01;54.74;100996.53;4880023;29;20064;-73
2022/07/21 06:42:34;;;;;;;4.38;1.35;;;;;;;23.97;53.71;101004.56;4870218;29;20056;-72
2022/07/21 06:45:03;;;;;;;5.30;1.33;;;;;;;23.92;54.32;100994.09;4876232;29;20045;-71
2022/07/21 06:47:32;;;;;;;3.42;1.33;;;;;;;23.86;53.84;101002.16;4875200;29;20543;-71
2022/07/21 06:50:02;;;;;;;3.83;1.00;;;;;;;23.78;54.22;100999.69;4869979;29;20496;-72
2022/07/21 06:52:33;;;;;;;5.55;1.50;;;;;;;23.65;54.63;101008.72;4872758;29;20102;-71
2022/07/21 06:55:02;;;;;;;3.65;1.10;;;;;;;23.49;55.38;101004.66;4868833;29;20109;-71
2022/07/21 06:57:31;;;;;;;4.57;1.40;;;;;;;23.40;55.19;101003.94;4876898;29;20067;-72
2022/07/21 07:00:00;;;;;;;7.63;1.77;;;;;;;23.33;55.76;101012.00;4873667;29;20079;-72
2022/07/21 07:02:29;;;;;;;4.22;1.40;;;;;;;23.24;56.61;101010.41;4864626;29;20117;-71
2022/07/21 07:04:57;;;;;;;2.90;1.40;;;;;;;23.13;56.99;101007.97;4872595;29;20061;-72
2022/07/21 07:07:26;;;;;;;5.53;1.20;;;;;;;23.05;56.92;101012.53;4867269;29;20075;-71
2022/07/21 07:09:56;;;;;;;3.05;1.25;;;;;;;22.96;58.03;101017.94;4866443;29;21318;-72
2022/07/21 07:12:25;;;;;;;3.13;1.45;;;;;;;22.85;58.81;101026.03;4875161;29;20045;-73
2022/07/21 07:14:53;;;;;;;5.53;1.70;;;;;;;22.76;58.79;101032.31;4871145;29;20059;-73
2022/07/21 07:17:33;;;;;;;5.50;2.00;;;;;;;22.71;59.48;101030.66;4871044;29;20060;-72
2022/07/21 07:20:01;;;;;;;2.97;1.30;;;;;;;22.64;58.20;101021.97;4871115;29;20049;-72
2022/07/21 07:22:29;;;;;;;2.42;1.27;;;;;;;22.54;58.49;101025.66;4870078;29;20091;-72
2022/07/21 07:25:00;;;;;;;2.92;1.23;;;;;;;22.46;58.07;101038.97;4868674;29;20053;-72
2022/07/21 07:27:28;;;;;;;4.18;1.20;;;;;;;22.44;58.29;101034.59;4874553;29;20060;-72
2022/07/21 07:30:03;;;;;;;4.75;1.42;;;;;;;22.41;58.00;101040.81;4872869;28;20061;-72
2022/07/21 07:32:32;;;;;;;5.25;1.40;;;;;;;22.38;57.61;101036.44;4874613;29;20598;-72
2022/07/21 07:35:00;;;;;;;5.45;1.25;;;;;;;22.31;57.86;101034.81;4871133;29;20097;-72
2022/07/21 07:37:29;;;;;;;4.40;1.38;;;;;;;22.26;57.76;101035.75;4872299;29;20122;-71
2022/07/21 07:39:59;;;;;;;3.13;1.25;;;;;;;22.20;57.97;101043.72;4880216;29;20114;-71
2022/07/21 07:42:28;;;;;;;2.85;1.40;;;;;;;22.09;58.58;101043.88;4865956;29;20109;-71
2022/07/21 07:44:56;;;;;;;3.50;1.35;;;;;;;21.93;59.55;101046.69;4867469;29;20076;-72
2022/07/21 07:47:25;;;;;;;2.58;1.20;;;;;;;21.86;59.49;101046.81;4871808;29;20108;-71
2022/07/21 07:49:54;;;;;;;4.30;1.50;;;;;;;21.78;59.32;101038.97;4866515;29;20161;-71
2022/07/21 07:52:23;;;;;;;5.57;1.50;;;;;;;21.72;59.14;101039.94;4860802;29;20049;-71
2022/07/21 07:54:52;;;;;;;6.07;1.70;;;;;;;21.69;59.36;101044.34;4870729;29;20049;-72
2022/07/21 07:57:22;;;;;;;5.10;1.38;;;;;;;21.64;59.75;101056.72;4872262;29;20057;-71
2022/07/21 07:59:50;;;;;;;4.18;2.03;;;;;;;21.48;59.53;101035.81;4869700;29;20453;-71
2022/07/21 08:02:19;;;;;;;6.18;1.42;;;;;;;21.46;59.94;101048.16;4872197;29;20080;-72
2022/07/21 08:04:47;;;;;;;5.00;1.92;;;;;;;21.40;59.55;101047.31;4874950;29;20591;-72
2022/07/21 08:07:16;;;;;;;4.20;1.30;;;;;;;21.32;60.41;101050.84;4871951;29;20085;-72
2022/07/21 08:09:44;;;;;;;4.45;1.33;;;;;;;21.25;60.68;101046.53;4870911;29;20049;-72
2022/07/21 08:12:13;;;;;;;2.97;1.63;;;;;;;21.15;60.91;101050.16;4882561;29;20053;-72
2022/07/21 08:14:43;;;;;;;3.33;1.20;;;;;;;21.02;61.29;101054.66;4870425;29;20045;-73
2022/07/21 08:17:12;;;;;;;5.00;1.30;;;;;;;20.94;61.52;101048.59;4872334;29;20083;-71
2022/07/21 08:19:40;;;;;;;4.70;1.52;;;;;;;20.90;61.60;101049.50;4869699;29;20054;-72
2022/07/21 08:22:09;;;;;;;2.78;1.40;;;;;;;20.84;62.03;101054.81;4866528;29;20046;-73
2022/07/21 08:24:37;;;;;;;5.93;1.63;;;;;;;20.73;62.00;101065.44;4872094;29;20076;-72
2022/07/21 08:27:06;;;;;;;2.28;1.40;;;;;;;20.65;62.24;101065.47;4872265;29;20049;-73
2022/07/21 08:29:35;;;;;;;3.90;1.35;;;;;;;20.61;62.36;101061.13;4868953;29;20053;-72
2022/07/21 08:32:06;;;;;;;5.63;1.27;;;;;;;20.52;62.63;101063.78;4855260;29;20524;-73
2022/07/21 08:34:34;;;;;;;4.53;1.20;;;;;;;20.43;63.33;101066.47;4854826;29;20056;-72
2022/07/21 08:37:03;;;;;;;4.75;1.40;;;;;;;20.35;63.51;101073.53;4859452;29;20452;-72
2022/07/21 08:39:31;;;;;;;6.28;1.58;;;;;;;20.22;64.44;101070.09;4859788;29;20053;-73
2022/07/21 08:42:01;;;;;;;4.65;1.45;;;;;;;20.10;64.60;101073.66;4856494;29;20084;-71
2022/07/21 08:44:31;;;;;;;3.88;1.20;;;;;;;20.03;65.08;101074.56;4855626;29;20065;-72
2022/07/21 08:47:01;;;;;;;5.28;1.48;;;;;;;19.97;64.66;101072.81;4851886;29;20042;-72
2022/07/21 08:49:31;;;;;;;4.88;1.40;;;;;;;19.94;64.49;101083.34;4853747;29;20057;-72
2022/07/21 08:52:00;;;;;;;2.97;1.20;;;;;;;19.86;65.27;101078.16;4855701;29;20046;-73
2022/07/21 08:54:28;;;;;;;2.72;1.30;;;;;;;19.81;64.72;101085.19;4849431;29;20064;-71
2022/07/21 08:56:57;;;;;;;5.32;1.50;;;;;;;19.80;64.33;101080.78;4852121;29;20257;-72
2022/07/21 08:59:26;;;;;;;5.50;1.50;;;;;;;19.70;64.67;101081.69;4853071;29;20053;-72
2022/07/21 09:01:55;;;;;;;4.75;1.48;;;;;;;19.64;64.77;101081.69;4855422;29;20070;-72
2022/07/21 09:04:29;;;;;;;4.82;1.77;;;;;;;19.56;64.90;101081.72;4857349;29;20488;-72
2022/07/21 09:07:01;;;;;;;2.53;1.50;;;;;;;19.54;64.94;101082.56;4856021;29;20090;-72
2022/07/21 09:09:32;;;;;;;8.43;2.20;;;;;;;19.48;65.20;101082.59;4855150;29;20065;-72
2022/07/21 09:12:02;;;;;;;6.47;1.70;;;;;;;19.38;65.58;101082.63;4856863;29;20049;-72
2022/07/21 09:14:33;;;;;;;5.95;1.45;;;;;;;19.31;65.73;101083.50;4852676;29;20049;-72
2022/07/21 09:17:02;;;;;;;4.05;1.50;;;;;;;19.22;65.84;101088.75;4846463;29;20522;-71
2022/07/21 09:19:33;;;;;;;4.20;1.55;;;;;;;19.18;66.27;101097.50;4855759;29;20053;-73
2022/07/21 09:22:05;;;;;;;4.93;1.77;;;;;;;19.12;66.56;101093.13;4855242;29;20053;-72
2022/07/21 09:24:38;;;;;;;4.07;1.40;;;;;;;19.04;67.74;101095.75;4853649;29;20115;-72
2022/07/21 09:27:14;;;;;;;5.35;1.77;;;;;;;18.99;67.13;101104.50;4857497;29;20046;-72
2022/07/21 09:29:46;;;;;;;4.80;1.77;;;;;;;18.97;67.27;101096.63;4867390;29;20061;-72
2022/07/21 09:32:26;;;;;;;6.90;1.83;;;;;;;18.90;67.79;101094.88;4877291;29;20124;-71
2022/07/21 09:34:56;;;;;;;3.53;1.30;;;;;;;18.85;67.52;101096.59;4866253;29;20513;-72
2022/07/21 09:37:27;;;;;;;3.80;1.45;;;;;;;18.80;67.88;101106.22;4882170;29;20048;-72
2022/07/21 09:39:57;;;;;;;4.47;1.80;;;;;;;18.77;67.56;101099.22;4879631;29;20495;-72
2022/07/21 09:42:27;;;;;;;9.85;1.98;;;;;;;18.77;67.55;101103.59;4875723;29;20044;-72
2022/07/21 09:44:58;;;;;;;5.20;1.63;;;;;;;18.74;68.27;101109.69;4874987;29;20492;-72
2022/07/21 09:47:29;;;;;;;2.47;1.42;;;;;;;18.66;68.07;101111.41;4872878;29;20060;-71
2022/07/21 09:50:09;;;;;;;8.02;1.73;;;;;;;18.60;68.41;101109.66;4875862;29;20056;-71
2022/07/21 09:52:41;;;;;;;5.43;2.00;;;;;;;18.49;68.46;101103.50;4880367;29;20060;-70
2022/07/21 09:55:13;;;;;;;4.18;1.70;;;;;;;18.51;68.64;101108.75;4872796;29;20066;-72
2022/07/21 09:57:42;;;;;;;4.45;1.60;;;;;;;18.42;68.78;101113.09;4875425;29;20109;-71
2022/07/21 10:00:13;;;;;;;4.07;1.70;;;;;;;18.39;68.83;101109.59;4875073;29;20067;-71
2022/07/21 10:02:44;;;;;;;3.45;1.42;;;;;;;18.37;69.28;101108.69;4874683;29;20408;-71
2022/07/21 10:05:14;;;;;;;4.55;1.67;;;;;;;18.33;69.41;101106.97;4875623;29;20049;-71
2022/07/21 10:07:46;;;;;;;5.18;1.40;;;;;;;18.29;69.53;101100.84;4876703;29;20052;-72
2022/07/21 10:10:16;;;;;;;5.93;2.00;;;;;;;18.28;69.96;101103.44;4877439;29;20130;-71
2022/07/21 10:12:47;;;;;;;4.07;1.52;;;;;;;18.29;69.50;101107.81;4876951;29;20057;-71
2022/07/21 10:15:17;;;;;;;5.20;1.40;;;;;;;18.28;69.40;101106.06;4871081;29;20052;-72
2022/07/21 10:17:51;;;;;;;5.55;1.63;;;;;;;18.25;69.79;101106.91;4873747;29;20049;-72
2022/07/21 10:20:27;;;;;;;4.60;1.67;;;;;;;18.23;70.26;101113.03;4885134;29;20132;-72
2022/07/21 10:23:09;;;;;;;3.72;1.65;;;;;;;18.16;70.17;101118.25;4873740;29;20390;-72
2022/07/21 10:25:39;;;;;;;5.47;1.80;;;;;;;18.11;70.96;101122.59;4875027;29;20511;-73
2022/07/21 10:28:22;;;;;;;5.40;1.70;;;;;;;18.06;70.77;101118.22;4867375;29;20085;-72
2022/07/21 10:30:58;;;;;;;3.35;1.40;;;;;;;18.01;71.26;101115.56;4875763;29;20071;-72
2022/07/21 10:33:55;;;;;;;5.47;1.92;;;;;;;17.95;71.78;101118.16;4872512;29;20990;-71
2022/07/21 10:36:42;;;;;;;4.20;1.50;;;;;;;17.91;71.68;101121.59;4871025;29;20079;-71
2022/07/21 10:39:26;;;;;;;2.90;1.55;;;;;;;17.88;71.72;101119.00;4879986;29;20052;-73
2022/07/21 10:41:58;;;;;;;4.63;1.80;;;;;;;17.82;72.26;101124.19;4874639;29;20117;-73
2022/07/21 10:44:47;;;;;;;4.22;1.70;;;;;;;17.72;73.02;101129.31;4875767;29;20068;-73
2022/07/21 10:47:18;;;;;;;4.03;1.83;;;;;;;17.66;73.28;101134.53;4871212;29;20060;-72
2022/07/21 10:49:50;;;;;;;6.35;1.85;;;;;;;17.61;73.12;101137.97;4874440;29;20463;-73
2022/07/21 10:52:54;;;;;;;6.80;2.08;;;;;;;17.54;74.27;101142.28;4865592;29;20055;-72
2022/07/21 10:55:26;;;;;;;7.47;2.17;;;;;;;17.47;74.17;101138.75;4868436;29;20052;-72
2022/07/21 10:58:25;;;;;;;5.05;1.50;;;;;;;17.48;74.43;101142.28;4872173;29;20127;-73
2022/07/21 11:00:54;;;;;;;4.22;1.65;;;;;;;17.49;74.24;101141.38;4874494;29;20621;-73
2022/07/21 11:03:28;;;;;;;4.47;1.70;;;;;;;17.48;74.25;101135.28;4869993;29;20044;-71
2022/07/21 11:06:27;;;;;;;4.53;1.83;;;;;;;17.48;74.17;101139.66;4871352;29;20598;-71
2022/07/21 11:09:08;;;;;;;3.33;1.58;;;;;;;17.47;73.92;101143.97;4813475;29;20121;-71
2022/07/21 11:11:39;;;;;;;3.97;1.70;;;;;;;17.42;74.71;101152.69;4865863;29;20056;-71
2022/07/21 11:14:11;;;;;;;4.55;1.60;;;;;;;17.30;75.61;101161.31;4874522;29;20137;-72
2022/07/21 11:17:06;;;;;;;2.70;1.50;;;;;;;17.17;77.06;101162.94;4877455;29;20049;-72
2022/07/21 11:19:45;;;;;;;5.47;1.90;;;;;;;17.09;76.49;101154.16;4823402;29;20625;-71
2022/07/21 11:22:16;;;;;;;4.82;1.90;;;;;;;17.06;76.27;101157.59;4871614;29;20049;-71
2022/07/21 11:24:47;;;;;;;3.55;1.55;;;;;;;17.03;77.25;101167.16;4873669;29;20056;-71
2022/07/21 11:27:19;;;;;;;4.72;1.67;;;;;;;16.96;78.14;101159.25;4875176;29;20099;-72
2022/07/21 11:29:55;;;;;;;4.47;1.65;;;;;;;16.87;78.64;101164.38;4876014;29;20069;-71
2022/07/21 11:32:25;;;;;;;5.22;1.85;;;;;;;16.74;78.69;101154.63;4871082;29;20053;-71
2022/07/21 11:34:55;;;;;;;6.78;1.60;;;;;;;16.77;78.97;101159.91;4875505;29;20040;-72
2022/07/21 11:37:30;;;;;;;4.97;1.48;;;;;;;16.75;78.75;101161.63;4877839;29;20112;-71
2022/07/21 11:39:59;;;;;;;3.08;1.75;;;;;;;16.72;79.30;101164.19;4879534;29;20093;-72
2022/07/21 11:42:30;;;;;;;4.68;1.55;;;;;;;16.68;79.62;101159.81;4877269;29;20065;-71